Time;durP1;ratioP1;P1;durP2;ratioP2;P2;SDS_P1;SDS_P2;PMS_P1;PMS_P2;Temp;Humidity;BMP_temperature;BMP_pressure;BME280_temperature;BME280_humidity;BME280_pressure;Samples;Min_cycle;Max_cycle;Signal;HPM_P1;HPM_P2
2022/06/21 00:02:12;;;;;;;7.60;3.10;;;12.00;99.90;;;;;;5036316;28;20106;-71
2022/06/21 00:04:38;;;;;;;6.88;3.30;;;12.00;99.90;;;;;;5040937;28;20150;-71
2022/06/21 00:07:06;;;;;;;9.02;3.35;;;12.00;99.90;;;;;;5041261;28;20233;-72
2022/06/21 00:09:32;;;;;;;9.20;3.30;;;12.00;99.90;;;;;;5037825;28;20507;-71
2022/06/21 00:11:57;;;;;;;11.02;2.90;;;11.90;99.90;;;;;;5037539;28;20378;-71
2022/06/21 00:14:23;;;;;;;8.88;3.25;;;11.90;99.90;;;;;;5048425;28;21149;-71
2022/06/21 00:16:48;;;;;;;10.07;3.03;;;12.00;99.90;;;;;;5036107;28;20076;-73
2022/06/21 00:19:23;;;;;;;8.75;3.03;;;11.90;99.90;;;;;;5046814;28;20041;-71
2022/06/21 00:21:49;;;;;;;7.72;2.83;;;11.80;99.90;;;;;;5036225;28;20029;-71
2022/06/21 00:24:16;;;;;;;8.07;3.00;;;11.80;99.90;;;;;;5040324;28;20033;-71
2022/06/21 00:26:43;;;;;;;10.77;3.10;;;11.80;99.90;;;;;;5038289;28;20076;-72
2022/06/21 00:29:10;;;;;;;12.30;3.13;;;11.80;99.90;;;;;;5027588;28;20037;-72
2022/06/21 00:31:37;;;;;;;8.55;2.95;;;11.70;99.90;;;;;;5033801;28;20472;-72
2022/06/21 00:34:13;;;;;;;9.57;2.88;;;11.70;99.90;;;;;;5047590;28;20073;-72
2022/06/21 00:36:40;;;;;;;9.20;2.80;;;11.80;99.90;;;;;;5034905;28;20463;-72
2022/06/21 00:39:06;;;;;;;13.70;4.05;;;11.80;99.90;;;;;;5035331;28;20854;-72
2022/06/21 00:41:47;;;;;;;8.98;3.30;;;11.80;99.90;;;;;;5043830;28;20075;-72
2022/06/21 00:44:32;;;;;;;11.88;3.45;;;11.80;99.90;;;;;;5031609;28;20053;-72
2022/06/21 00:47:05;;;;;;;8.27;3.08;;;11.80;99.90;;;;;;5044406;28;20045;-72
2022/06/21 00:49:39;;;;;;;6.20;3.05;;;11.80;99.90;;;;;;5041492;28;20045;-71
2022/06/21 00:52:19;;;;;;;6.78;3.03;;;11.80;99.90;;;;;;5034096;28;20162;-71
2022/06/21 00:55:02;;;;;;;6.80;3.17;;;11.70;99.90;;;;;;5034705;28;20095;-72
2022/06/21 00:57:39;;;;;;;6.38;2.88;;;11.70;99.90;;;;;;5038473;28;20045;-72
2022/06/21 01:00:29;;;;;;;7.20;2.67;;;11.60;99.90;;;;;;5034347;28;20114;-72
2022/06/21 01:02:56;;;;;;;6.57;2.65;;;11.50;99.90;;;;;;5029256;28;20480;-72
2022/06/21 01:05:23;;;;;;;7.40;3.08;;;11.50;99.90;;;;;;5037564;28;20080;-72
2022/06/21 01:07:53;;;;;;;7.05;2.78;;;11.50;99.90;;;;;;5039446;28;20492;-72
2022/06/21 01:10:19;;;;;;;9.20;2.78;;;11.40;99.90;;;;;;5039250;28;20037;-71
2022/06/21 01:12:53;;;;;;;9.50;4.00;;;11.40;99.90;;;;;;5044944;28;20492;-72
2022/06/21 01:15:22;;;;;;;14.05;3.45;;;11.50;99.90;;;;;;5033062;28;20048;-72
2022/06/21 01:17:50;;;;;;;8.00;3.97;;;11.50;99.90;;;;;;5040635;28;20060;-71
2022/06/21 01:20:22;;;;;;;6.85;2.92;;;11.40;99.90;;;;;;5030732;28;20044;-71
2022/06/21 01:22:58;;;;;;;9.82;3.00;;;11.40;99.90;;;;;;5044481;28;20049;-71
2022/06/21 01:26:03;;;;;;;9.00;3.30;;;11.40;99.90;;;;;;5047018;28;20048;-71
2022/06/21 01:28:30;;;;;;;8.40;2.80;;;11.40;99.90;;;;;;5045534;28;20041;-71
2022/06/21 01:30:57;;;;;;;10.52;3.33;;;11.40;99.90;;;;;;5042172;28;20114;-73
2022/06/21 01:33:36;;;;;;;7.30;3.15;;;11.40;99.90;;;;;;5045416;28;20041;-72
2022/06/21 01:36:10;;;;;;;7.70;2.75;;;11.40;99.90;;;;;;5038667;28;20063;-71
2022/06/21 01:38:45;;;;;;;8.98;2.90;;;11.30;99.90;;;;;;5043409;28;20036;-71
2022/06/21 01:41:15;;;;;;;9.20;2.60;;;11.30;99.90;;;;;;5042055;28;20171;-71
2022/06/21 01:43:45;;;;;;;6.10;2.85;;;11.20;99.90;;;;;;5044144;28;20512;-71
2022/06/21 01:46:14;;;;;;;8.10;3.03;;;11.20;99.90;;;;;;5042679;28;20048;-71
2022/06/21 01:48:47;;;;;;;5.78;2.92;;;11.20;99.90;;;;;;5040017;28;20041;-71
2022/06/21 01:51:27;;;;;;;6.57;2.72;;;11.10;99.90;;;;;;5037974;28;20101;-71
2022/06/21 01:53:54;;;;;;;6.00;2.67;;;11.10;99.90;;;;;;5036590;28;20311;-71
2022/06/21 01:56:28;;;;;;;5.75;2.70;;;11.00;99.90;;;;;;5037759;28;20089;-72
2022/06/21 01:59:07;;;;;;;8.30;2.90;;;11.00;99.90;;;;;;5039086;28;20128;-71
2022/06/21 02:01:36;;;;;;;5.10;2.90;;;11.00;99.90;;;;;;5039439;28;20106;-71
2022/06/21 02:04:03;;;;;;;5.75;3.42;;;11.00;99.90;;;;;;5036782;28;20181;-71
2022/06/21 02:06:32;;;;;;;5.22;3.00;;;11.00;99.90;;;;;;5044373;28;20032;-71
2022/06/21 02:09:03;;;;;;;6.75;2.97;;;11.00;99.90;;;;;;5042339;28;20435;-72
2022/06/21 02:11:38;;;;;;;5.97;2.83;;;10.90;99.90;;;;;;5038701;28;20033;-70
2022/06/21 02:14:30;;;;;;;5.07;2.22;;;10.90;99.90;;;;;;5038360;28;20033;-71
2022/06/21 02:17:34;;;;;;;4.70;2.30;;;10.90;99.90;;;;;;5041179;28;20085;-71
2022/06/21 02:20:13;;;;;;;6.90;2.50;;;10.80;99.90;;;;;;5043104;28;20420;-71
2022/06/21 02:22:39;;;;;;;6.20;2.22;;;10.80;99.90;;;;;;5041579;28;20059;-71
2022/06/21 02:25:06;;;;;;;6.45;2.40;;;10.90;99.90;;;;;;5045251;28;20041;-72
2022/06/21 02:27:34;;;;;;;4.78;2.75;;;10.90;99.90;;;;;;5046362;28;20047;-71
2022/06/21 02:30:03;;;;;;;6.43;3.10;;;10.90;99.90;;;;;;5038509;28;20052;-71
2022/06/21 02:32:35;;;;;;;6.13;2.90;;;10.90;99.90;;;;;;5039186;28;20045;-71
2022/06/21 02:35:27;;;;;;;10.18;3.30;;;10.90;99.90;;;;;;5036541;28;20147;-71
2022/06/21 02:37:57;;;;;;;5.75;3.33;;;10.90;99.90;;;;;;5042441;28;20800;-71
2022/06/21 02:40:30;;;;;;;5.00;2.65;;;10.80;99.90;;;;;;5033618;28;20124;-71
2022/06/21 02:43:02;;;;;;;5.97;2.90;;;10.80;99.90;;;;;;5046361;28;20116;-71
2022/06/21 02:45:44;;;;;;;10.23;3.85;;;10.70;99.90;;;;;;5040760;28;20045;-71
2022/06/21 02:48:15;;;;;;;7.07;3.90;;;10.70;99.90;;;;;;5033075;28;20041;-71
2022/06/21 02:50:46;;;;;;;4.30;2.58;;;10.70;99.90;;;;;;5039803;28;20049;-71
2022/06/21 02:53:36;;;;;;;4.38;2.40;;;10.70;99.90;;;;;;5041621;28;20061;-71
2022/06/21 02:56:25;;;;;;;2.97;1.55;;;10.60;99.90;;;;;;5036986;28;20599;-71
2022/06/21 02:58:57;;;;;;;6.57;2.20;;;10.60;99.90;;;;;;5040257;28;20415;-71
2022/06/21 03:01:34;;;;;;;2.67;2.00;;;10.50;99.90;;;;;;5038963;28;20052;-71
2022/06/21 03:04:00;;;;;;;5.25;2.75;;;10.50;99.90;;;;;;5033241;28;20136;-71
2022/06/21 03:06:28;;;;;;;6.65;2.47;;;10.50;99.90;;;;;;5037826;28;20037;-71
2022/06/21 03:09:08;;;;;;;9.60;2.70;;;10.60;99.90;;;;;;5038641;28;21554;-72
2022/06/21 03:11:39;;;;;;;11.75;3.60;;;10.70;99.90;;;;;;5038462;28;20779;-71
2022/06/21 03:14:08;;;;;;;7.55;3.30;;;10.70;99.90;;;;;;5038511;28;20768;-71
2022/06/21 03:16:34;;;;;;;6.07;2.95;;;10.70;99.90;;;;;;5040112;28;20055;-70
2022/06/21 03:19:07;;;;;;;6.57;3.30;;;10.70;99.90;;;;;;5038983;28;20040;-71
2022/06/21 03:21:35;;;;;;;5.50;3.65;;;10.70;99.90;;;;;;5041049;28;20132;-71
2022/06/21 03:24:07;;;;;;;10.15;4.57;;;10.80;99.90;;;;;;5040887;28;20043;-72
2022/06/21 03:26:36;;;;;;;13.90;6.18;;;10.80;99.90;;;;;;5037232;28;20041;-70
2022/06/21 03:29:02;;;;;;;7.40;3.15;;;10.80;99.90;;;;;;5040610;28;20045;-71
2022/06/21 03:31:38;;;;;;;5.75;2.85;;;10.80;99.90;;;;;;5041917;28;20032;-71
2022/06/21 03:34:16;;;;;;;5.60;3.55;;;10.80;99.90;;;;;;5040109;28;20045;-71
2022/06/21 03:36:42;;;;;;;9.52;5.38;;;10.80;99.90;;;;;;5039290;28;20037;-72
2022/06/21 03:39:17;;;;;;;6.65;4.13;;;10.80;99.90;;;;;;5039483;28;20040;-71
2022/06/21 03:41:45;;;;;;;8.38;3.80;;;10.90;99.90;;;;;;5036702;28;20052;-71
2022/06/21 03:44:28;;;;;;;8.80;3.80;;;10.90;99.90;;;;;;5032124;28;20128;-71
2022/06/21 03:47:18;;;;;;;5.07;2.75;;;11.00;99.90;;;;;;5037467;28;20071;-72
2022/06/21 03:50:06;;;;;;;9.35;4.60;;;10.90;99.90;;;;;;5046938;28;20044;-71
2022/06/21 03:52:47;;;;;;;9.73;4.70;;;10.90;99.90;;;;;;5044863;28;20127;-71
2022/06/21 03:55:15;;;;;;;14.20;5.05;;;11.00;99.90;;;;;;5034496;28;20135;-71
2022/06/21 03:57:49;;;;;;;9.25;6.18;;;11.00;99.90;;;;;;5040003;28;20084;-71
2022/06/21 04:00:16;;;;;;;11.00;6.55;;;11.10;99.90;;;;;;5038654;28;20507;-71
2022/06/21 04:03:28;;;;;;;14.07;7.25;;;11.20;99.90;;;;;;5041681;28;20079;-71
2022/06/21 04:06:12;;;;;;;5.68;3.50;;;11.20;99.90;;;;;;5040276;28;20087;-72
2022/06/21 04:08:56;;;;;;;7.38;3.58;;;11.20;99.90;;;;;;5041038;28;20041;-71
2022/06/21 04:11:31;;;;;;;8.52;4.32;;;11.20;99.90;;;;;;5044410;28;20143;-71
2022/06/21 04:14:06;;;;;;;8.32;3.60;;;11.20;99.90;;;;;;5046148;28;20156;-71
2022/06/21 04:16:44;;;;;;;9.90;4.00;;;11.20;99.90;;;;;;5045075;28;20057;-71
2022/06/21 04:19:31;;;;;;;7.68;3.78;;;11.30;99.90;;;;;;5045231;28;20045;-72
2022/06/21 04:22:24;;;;;;;12.25;5.50;;;12.20;99.90;;;;;;5039230;28;20068;-71
2022/06/21 04:25:00;;;;;;;15.07;5.57;;;13.00;99.90;;;;;;5038986;28;20539;-71
2022/06/21 04:27:40;;;;;;;7.40;4.78;;;13.70;99.90;;;;;;5045894;28;20120;-71
2022/06/21 04:30:20;;;;;;;8.50;4.70;;;14.20;99.90;;;;;;5038918;28;20087;-71
2022/06/21 04:32:59;;;;;;;9.52;4.78;;;14.60;99.90;;;;;;5041839;28;20033;-71
2022/06/21 04:35:32;;;;;;;10.73;4.63;;;14.80;99.90;;;;;;5040660;28;20534;-73
2022/06/21 04:38:01;;;;;;;11.75;4.88;;;14.70;99.90;;;;;;5038714;28;20075;-71
2022/06/21 04:40:35;;;;;;;10.50;5.43;;;14.50;99.90;;;;;;5041974;28;20595;-72
2022/06/21 04:43:09;;;;;;;7.68;5.20;;;14.20;99.90;;;;;;5039367;28;21003;-71
2022/06/21 04:45:42;;;;;;;7.55;4.45;;;13.80;99.90;;;;;;5036255;28;20450;-72
2022/06/21 04:48:28;;;;;;;10.43;4.57;;;13.50;99.90;;;;;;5042561;28;20484;-72
2022/06/21 04:51:35;;;;;;;9.05;4.63;;;13.30;99.90;;;;;;5029626;28;20053;-71
2022/06/21 04:54:04;;;;;;;9.52;4.53;;;13.10;99.90;;;;;;5034075;28;20408;-72
2022/06/21 04:56:52;;;;;;;11.23;4.80;;;13.00;99.90;;;;;;5041387;28;20045;-71
2022/06/21 04:59:29;;;;;;;8.27;4.43;;;13.10;99.90;;;;;;5039183;28;20059;-71
2022/06/21 05:01:56;;;;;;;9.52;4.25;;;13.10;99.90;;;;;;5033337;28;21789;-71
2022/06/21 05:04:26;;;;;;;13.43;4.68;;;13.20;99.90;;;;;;5026182;28;20049;-71
2022/06/21 05:06:54;;;;;;;8.90;4.05;;;13.20;99.90;;;;;;5031206;28;20048;-71
2022/06/21 05:09:25;;;;;;;5.90;3.33;;;13.30;99.90;;;;;;5038845;28;20471;-70
2022/06/21 05:11:58;;;;;;;8.77;4.47;;;13.30;99.90;;;;;;5035933;28;20209;-72
2022/06/21 05:14:28;;;;;;;9.07;5.20;;;13.50;99.90;;;;;;5033762;28;20063;-71
2022/06/21 05:16:54;;;;;;;11.82;4.68;;;13.50;99.90;;;;;;5034123;28;20408;-71
2022/06/21 05:19:31;;;;;;;9.82;5.25;;;13.50;99.90;;;;;;5034974;28;20048;-70
2022/06/21 05:22:02;;;;;;;11.32;4.28;;;13.50;99.90;;;;;;5028256;28;20071;-69
2022/06/21 05:24:29;;;;;;;11.82;4.47;;;13.60;99.90;;;;;;5029688;28;20071;-71
2022/06/21 05:27:14;;;;;;;13.02;4.28;;;13.50;99.90;;;;;;5035658;28;20041;-71
2022/06/21 05:30:00;;;;;;;9.13;4.82;;;13.60;99.90;;;;;;5032676;28;20045;-71
2022/06/21 05:32:31;;;;;;;8.23;4.38;;;13.60;99.90;;;;;;5034433;28;20041;-72
2022/06/21 05:35:05;;;;;;;9.88;4.18;;;13.60;99.90;;;;;;5033294;28;20033;-70
2022/06/21 05:37:34;;;;;;;10.10;4.10;;;13.70;99.90;;;;;;5031948;28;20045;-72
2022/06/21 05:40:07;;;;;;;13.15;4.80;;;13.70;99.90;;;;;;5031633;28;20044;-71
2022/06/21 05:42:33;;;;;;;9.80;4.70;;;13.80;99.90;;;;;;5038166;28;20044;-72
2022/06/21 05:45:11;;;;;;;9.77;4.82;;;13.90;99.90;;;;;;5033751;28;20037;-71
2022/06/21 05:47:43;;;;;;;9.20;4.50;;;14.00;99.90;;;;;;5032810;28;20053;-74
2022/06/21 05:50:15;;;;;;;10.25;4.43;;;14.10;99.90;;;;;;5037960;28;20142;-71
2022/06/21 05:52:49;;;;;;;14.82;5.10;;;14.20;99.90;;;;;;5048423;28;20062;-72
2022/06/21 05:55:37;;;;;;;9.70;4.70;;;14.40;99.90;;;;;;5040842;28;20048;-72
2022/06/21 05:58:21;;;;;;;9.68;4.72;;;14.60;99.90;;;;;;5038524;28;20055;-73
2022/06/21 06:01:10;;;;;;;7.13;3.75;;;14.80;99.90;;;;;;5040362;28;20053;-72
2022/06/21 06:03:52;;;;;;;10.93;4.55;;;14.90;99.90;;;;;;5037833;28;20326;-71
2022/06/21 06:06:20;;;;;;;8.60;4.15;;;14.90;99.90;;;;;;5042471;28;20060;-72
2022/06/21 06:08:53;;;;;;;11.15;4.97;;;15.20;99.90;;;;;;5044031;28;20041;-71
2022/06/21 06:11:24;;;;;;;9.93;4.30;;;15.40;99.90;;;;;;5042128;28;20040;-72
2022/06/21 06:13:52;;;;;;;8.13;4.25;;;15.50;99.90;;;;;;5042938;28;20043;-72
2022/06/21 06:16:24;;;;;;;9.77;4.35;;;15.60;99.90;;;;;;5042776;28;20049;-71
2022/06/21 06:19:00;;;;;;;10.52;4.47;;;15.60;99.90;;;;;;5046056;28;20041;-71
2022/06/21 06:21:34;;;;;;;7.85;3.95;;;15.70;99.90;;;;;;5047300;28;20037;-72
2022/06/21 06:24:15;;;;;;;6.95;3.47;;;15.70;99.90;;;;;;5044966;28;20037;-72
2022/06/21 06:26:43;;;;;;;11.05;3.67;;;15.50;99.90;;;;;;5041024;28;20060;-72
2022/06/21 06:29:11;;;;;;;6.95;3.63;;;15.50;99.90;;;;;;5043945;28;20055;-77
2022/06/21 06:31:55;;;;;;;8.18;3.80;;;15.40;99.90;;;;;;5045042;28;20045;-71
2022/06/21 06:34:25;;;;;;;9.82;3.83;;;15.40;99.90;;;;;;5040495;28;20448;-70
2022/06/21 06:37:02;;;;;;;7.40;3.60;;;15.40;99.90;;;;;;5043702;28;20671;-70
2022/06/21 06:39:30;;;;;;;8.10;3.85;;;15.40;99.90;;;;;;5044537;28;20033;-70
2022/06/21 06:42:12;;;;;;;12.40;3.72;;;15.40;99.90;;;;;;5044517;28;20063;-71
2022/06/21 06:44:43;;;;;;;9.93;3.72;;;15.50;99.90;;;;;;5042553;28;20045;-70
2022/06/21 06:47:25;;;;;;;10.68;3.20;;;15.70;99.90;;;;;;5046338;28;20381;-69
2022/06/21 06:50:00;;;;;;;8.35;3.00;;;15.90;99.90;;;;;;5044140;28;20049;-70
2022/06/21 06:52:41;;;;;;;7.63;3.20;;;16.20;99.90;;;;;;5045044;28;20163;-70
2022/06/21 06:55:14;;;;;;;7.05;3.88;;;16.40;99.90;;;;;;5042899;28;20456;-70
2022/06/21 06:57:43;;;;;;;5.63;2.90;;;16.50;99.90;;;;;;5045201;28;20041;-70
2022/06/21 07:00:16;;;;;;;7.93;3.13;;;16.60;99.90;;;;;;5042137;28;20071;-71
2022/06/21 07:02:49;;;;;;;7.03;2.65;;;16.80;99.90;;;;;;5046963;28;20489;-70
2022/06/21 07:05:21;;;;;;;9.55;2.80;;;17.00;99.90;;;;;;5043516;28;20037;-70
2022/06/21 07:07:58;;;;;;;7.70;3.03;;;17.10;99.90;;;;;;5042838;28;20049;-71
2022/06/21 07:10:26;;;;;;;8.45;2.90;;;17.40;99.90;;;;;;5043176;28;20048;-71
2022/06/21 07:12:54;;;;;;;7.18;2.75;;;17.70;99.90;;;;;;5045544;28;20049;-70
2022/06/21 07:15:39;;;;;;;7.53;2.90;;;17.80;99.90;;;;;;5043200;28;20056;-71
2022/06/21 07:18:12;;;;;;;7.72;2.50;;;17.90;99.90;;;;;;5040840;28;20095;-68
2022/06/21 07:20:44;;;;;;;6.70;2.63;;;17.80;99.90;;;;;;5047875;28;20393;-70
2022/06/21 07:23:19;;;;;;;7.60;3.33;;;17.60;99.90;;;;;;5044613;28;20044;-71
2022/06/21 07:26:01;;;;;;;7.22;2.50;;;17.50;99.90;;;;;;5044144;28;20041;-70
2022/06/21 07:28:41;;;;;;;5.22;2.05;;;17.50;99.90;;;;;;5047871;28;20051;-71
2022/06/21 07:31:19;;;;;;;10.48;2.35;;;17.50;99.90;;;;;;5034235;28;20149;-70
2022/06/21 07:34:11;;;;;;;9.93;2.60;;;17.40;99.90;;;;;;5041409;28;20045;-71
2022/06/21 07:36:53;;;;;;;8.38;2.95;;;17.50;99.90;;;;;;5046030;28;20080;-70
2022/06/21 07:39:49;;;;;;;6.85;2.35;;;17.70;99.90;;;;;;5042007;28;20440;-70
2022/06/21 07:42:28;;;;;;;10.80;2.65;;;17.60;99.90;;;;;;5042635;28;20063;-70
2022/06/21 07:45:10;;;;;;;6.50;2.92;;;17.50;99.90;;;;;;5042015;28;20049;-70
2022/06/21 07:47:41;;;;;;;8.30;3.03;;;17.40;99.90;;;;;;5041900;28;20037;-69
2022/06/21 07:50:15;;;;;;;7.85;2.35;;;17.20;99.90;;;;;;5047455;28;20045;-70
2022/06/21 07:52:50;;;;;;;8.95;3.20;;;17.10;99.90;;;;;;5046329;28;20537;-71
2022/06/21 07:55:33;;;;;;;7.25;2.72;;;17.40;99.90;;;;;;5041408;28;20093;-71
2022/06/21 07:58:09;;;;;;;5.15;2.08;;;17.70;99.90;;;;;;5042141;28;20090;-69
2022/06/21 08:09:23;;;;;;;7.05;2.30;;;19.20;99.90;;;;;;5036943;28;20044;-70
2022/06/21 08:11:50;;;;;;;7.97;2.15;;;19.40;99.90;;;;;;5041125;28;20048;-71
2022/06/21 08:14:17;;;;;;;6.15;2.13;;;19.30;99.90;;;;;;5038164;28;20056;-71
2022/06/21 08:16:52;;;;;;;5.43;1.92;;;19.00;99.90;;;;;;5038171;28;20412;-71
2022/06/21 08:19:37;;;;;;;6.45;1.90;;;18.80;99.90;;;;;;5041397;28;20044;-70
2022/06/21 08:22:21;;;;;;;8.05;2.30;;;18.50;99.90;;;;;;5030626;28;20052;-70
2022/06/21 08:24:47;;;;;;;9.43;2.30;;;18.30;99.90;;;;;;5036421;28;20364;-71
2022/06/21 08:27:37;;;;;;;11.02;2.30;;;18.40;99.90;;;;;;5033913;28;20269;-70
2022/06/21 08:30:27;;;;;;;5.68;2.17;;;18.60;99.90;;;;;;5032693;28;20056;-70
2022/06/21 08:32:56;;;;;;;9.75;2.85;;;18.60;99.90;;;;;;5040197;28;20041;-71
2022/06/21 08:35:30;;;;;;;9.88;2.55;;;18.60;99.90;;;;;;5044927;28;20050;-70
2022/06/21 08:38:09;;;;;;;7.60;2.83;;;18.50;99.90;;;;;;5037513;28;20048;-69
2022/06/21 08:41:51;;;;;;;7.10;2.67;;;18.40;99.90;;;;;;5038190;28;20040;-71
2022/06/21 08:44:25;;;;;;;7.40;2.13;;;18.30;99.90;;;;;;5036330;28;20427;-73
2022/06/21 08:47:09;;;;;;;5.93;2.38;;;18.10;99.90;;;;;;5033359;28;20045;-71
2022/06/21 08:50:05;;;;;;;10.93;2.85;;;18.00;99.90;;;;;;5030175;28;20064;-72
2022/06/21 08:52:42;;;;;;;13.63;3.95;;;17.90;99.90;;;;;;5034927;28;20040;-72
2022/06/21 08:55:33;;;;;;;5.05;2.33;;;18.00;99.90;;;;;;5043091;28;20052;-71
2022/06/21 08:58:13;;;;;;;8.95;3.20;;;18.20;99.90;;;;;;5037741;28;20095;-71
2022/06/21 09:00:47;;;;;;;9.25;3.00;;;18.30;99.90;;;;;;5041064;28;20484;-71
2022/06/21 09:03:23;;;;;;;6.03;2.38;;;18.40;99.90;;;;;;5041946;28;20048;-72
2022/06/21 09:06:01;;;;;;;5.68;2.25;;;18.40;99.90;;;;;;5035498;28;20048;-72
2022/06/21 09:08:29;;;;;;;6.07;2.47;;;18.30;99.90;;;;;;5032867;28;20049;-72
2022/06/21 09:11:26;;;;;;;6.57;2.33;;;18.20;99.90;;;;;;5041264;28;20040;-72
2022/06/21 09:14:10;;;;;;;6.68;2.65;;;18.20;99.90;;;;;;5040419;28;20520;-72
2022/06/21 09:16:54;;;;;;;6.78;2.40;;;18.20;99.90;;;;;;5043019;28;20518;-71
2022/06/21 09:19:40;;;;;;;7.80;2.80;;;18.30;99.90;;;;;;5038535;28;20048;-71
2022/06/21 09:22:24;;;;;;;6.53;2.50;;;18.40;99.90;;;;;;5036421;28;20045;-71
2022/06/21 09:25:10;;;;;;;7.75;2.20;;;18.80;99.90;;;;;;5039913;28;20263;-71
2022/06/21 09:27:51;;;;;;;7.63;2.25;;;19.30;99.90;;;;;;5044967;28;20143;-70
2022/06/21 09:30:32;;;;;;;7.22;2.45;;;19.60;99.90;;;;;;5038888;28;20044;-72
2022/06/21 09:33:06;;;;;;;7.95;2.47;;;19.90;99.90;;;;;;5044332;28;20037;-71
2022/06/21 09:35:56;;;;;;;4.90;1.85;;;20.40;99.90;;;;;;5044888;28;20045;-71
2022/06/21 09:38:45;;;;;;;7.85;2.30;;;20.60;99.90;;;;;;5038273;28;20102;-71
2022/06/21 09:41:19;;;;;;;6.38;1.90;;;20.80;99.90;;;;;;5039535;28;20053;-71
2022/06/21 09:44:09;;;;;;;7.88;2.42;;;21.00;99.90;;;;;;5040441;28;20131;-69
2022/06/21 09:46:42;;;;;;;5.80;2.17;;;21.10;99.90;;;;;;5038845;28;20064;-70
2022/06/21 09:49:26;;;;;;;7.80;1.90;;;20.90;99.90;;;;;;5045478;28;20041;-72
2022/06/21 09:52:04;;;;;;;6.05;2.10;;;21.00;99.90;;;;;;5043278;28;20052;-70
2022/06/21 09:54:38;;;;;;;6.97;2.00;;;21.30;99.90;;;;;;5043514;28;20048;-72
2022/06/21 09:57:32;;;;;;;3.85;1.90;;;21.50;99.90;;;;;;5040884;28;20103;-71
2022/06/21 10:00:32;;;;;;;4.50;1.83;;;21.70;99.90;;;;;;4994495;28;20054;-71
2022/06/21 10:03:35;;;;;;;5.15;1.55;;;21.70;99.90;;;;;;5002712;28;20071;-70
2022/06/21 10:06:17;;;;;;;5.40;1.85;;;22.00;99.90;;;;;;5001631;28;20150;-70
2022/06/21 10:09:03;;;;;;;6.07;1.83;;;22.00;99.90;;;;;;4997251;28;20073;-70
2022/06/21 10:11:50;;;;;;;6.53;2.08;;;21.70;99.90;;;;;;5004853;28;20806;-71
2022/06/21 10:14:26;;;;;;;4.30;1.98;;;21.60;99.90;;;;;;5002952;28;20049;-70
2022/06/21 10:17:11;;;;;;;7.32;2.10;;;21.80;99.90;;;;;;5004456;28;20101;-70
2022/06/21 10:20:04;;;;;;;3.40;1.83;;;22.10;99.90;;;;;;5003499;28;20046;-72
2022/06/21 10:22:36;;;;;;;;;;;22.20;99.90;;;;;;5002360;28;20300;-70
2022/06/21 10:25:35;;;;;;;4.90;1.80;;;22.00;99.90;;;;;;5004566;28;20496;-71
2022/06/21 10:28:33;;;;;;;6.95;1.98;;;21.70;99.90;;;;;;5001503;28;20045;-72
2022/06/21 10:31:16;;;;;;;5.68;2.00;;;21.70;99.90;;;;;;5001852;28;20389;-71
2022/06/21 10:33:49;;;;;;;5.97;1.90;;;21.80;99.90;;;;;;4999519;28;20040;-70
2022/06/21 10:36:35;;;;;;;5.13;2.08;;;21.70;99.90;;;;;;5003776;28;20058;-70
2022/06/21 10:39:16;;;;;;;7.18;2.30;;;21.70;99.90;;;;;;4998448;28;20038;-71
2022/06/21 10:45:08;;;;;;;6.15;1.90;;;22.10;99.90;;;;;;4999079;28;20255;-74
2022/06/21 10:47:53;;;;;;;6.05;2.17;;;22.00;99.90;;;;;;5007527;28;20292;-75
2022/06/21 10:50:50;;;;;;;4.25;1.63;;;21.80;99.90;;;;;;5007964;28;20125;-73
2022/06/21 10:53:54;;;;;;;5.10;1.88;;;21.60;99.90;;;;;;5004675;28;20042;-74
2022/06/21 11:02:50;;;;;;;5.55;2.72;;;21.20;99.90;;;;;;5045480;28;20071;-74
2022/06/21 11:05:37;;;;;;;6.57;2.63;;;21.50;99.90;;;;;;5040573;28;20041;-74
2022/06/21 11:08:11;;;;;;;10.13;2.67;;;21.60;99.90;;;;;;5042466;28;20049;-73
2022/06/21 11:10:47;;;;;;;7.07;2.20;;;21.60;99.90;;;;;;5042715;28;20041;-73
2022/06/21 11:13:16;;;;;;;6.50;2.10;;;21.60;99.90;;;;;;5048781;28;20044;-73
2022/06/21 11:15:54;;;;;;;5.72;2.20;;;21.60;99.90;;;;;;5044820;28;20049;-73
2022/06/21 11:18:32;;;;;;;7.72;2.30;;;21.50;99.90;;;;;;5034136;28;20070;-73
2022/06/21 11:21:03;;;;;;;4.20;1.60;;;21.60;99.90;;;;;;5043960;28;20064;-74
2022/06/21 11:23:42;;;;;;;4.88;1.58;;;21.60;99.90;;;;;;5039830;28;20042;-71
2022/06/21 11:26:30;;;;;;;5.15;2.20;;;21.70;99.90;;;;;;5042786;28;20052;-73
2022/06/21 11:29:15;;;;;;;6.60;2.08;;;21.80;99.90;;;;;;5041181;28;20242;-73
2022/06/21 11:32:08;;;;;;;4.35;1.80;;;22.00;99.90;;;;;;5047459;28;20090;-73
2022/06/21 11:34:52;;;;;;;6.05;1.60;;;22.10;99.90;;;;;;5040981;28;20061;-73
2022/06/21 11:37:42;;;;;;;4.90;1.73;;;22.20;99.90;;;;;;5043767;28;20128;-72
2022/06/21 11:41:00;;;;;;;7.15;2.00;;;22.20;99.90;;;;;;5038833;28;20389;-72
2022/06/21 11:43:41;;;;;;;6.43;2.10;;;22.50;99.90;;;;;;5030638;28;20083;-72
2022/06/21 11:46:49;;;;;;;6.63;1.65;;;22.90;99.90;;;;;;5034530;28;20128;-72
2022/06/21 11:49:48;;;;;;;6.28;1.80;;;23.00;99.90;;;;;;5001359;28;20050;-72
2022/06/21 11:52:28;;;;;;;5.05;1.90;;;23.00;99.90;;;;;;4982158;28;20082;-72
2022/06/21 11:55:15;;;;;;;4.63;1.80;;;23.00;99.90;;;;;;5039865;28;20079;-72
2022/06/21 11:57:47;;;;;;;5.47;1.90;;;22.90;99.90;;;;;;5042091;28;20048;-73
2022/06/21 12:00:35;;;;;;;7.25;1.80;;;22.90;99.90;;;;;;5036394;28;20036;-73
2022/06/21 12:03:03;;;;;;;5.93;1.92;;;23.00;99.90;;;;;;5038905;28;20399;-72
2022/06/21 12:05:31;;;;;;;5.05;1.88;;;22.90;99.90;;;;;;5045785;28;20049;-73
2022/06/21 12:08:10;;;;;;;6.28;1.80;;;22.90;99.90;;;;;;5040550;28;20049;-73
2022/06/21 12:10:51;;;;;;;4.90;1.50;;;22.90;99.90;;;;;;5043876;28;20033;-73
2022/06/21 12:13:53;;;;;;;4.57;1.73;;;23.10;99.90;;;;;;5037843;28;20076;-73
2022/06/21 12:16:38;;;;;;;7.88;2.20;;;23.20;99.90;;;;;;5041371;28;20064;-74
2022/06/21 12:19:13;;;;;;;5.43;1.85;;;23.30;99.90;;;;;;5043262;28;20045;-74
2022/06/21 12:21:46;;;;;;;5.90;1.80;;;23.30;99.90;;;;;;5043427;28;20037;-74
2022/06/21 12:24:20;;;;;;;5.28;1.92;;;23.30;99.90;;;;;;5042533;28;20056;-74
2022/06/21 12:26:46;;;;;;;5.30;1.83;;;23.30;99.90;;;;;;5042523;28;20052;-75
2022/06/21 12:29:20;;;;;;;4.47;1.90;;;23.30;99.90;;;;;;5037280;28;20045;-74
2022/06/21 12:32:00;;;;;;;7.47;1.95;;;23.40;99.90;;;;;;5041738;28;20504;-75
2022/06/21 12:34:33;;;;;;;5.88;1.70;;;23.40;99.90;;;;;;5038955;28;20053;-75
2022/06/21 12:36:59;;;;;;;3.58;1.85;;;23.40;99.90;;;;;;5040740;28;20045;-75
2022/06/21 12:39:37;;;;;;;6.50;1.80;;;23.40;99.90;;;;;;5041168;28;21186;-74
2022/06/21 12:42:35;;;;;;;3.20;1.73;;;23.50;99.90;;;;;;5040854;28;20179;-74
2022/06/21 12:45:39;;;;;;;5.40;1.92;;;23.70;99.90;;;;;;5037339;28;20045;-75
2022/06/21 12:48:05;;;;;;;;;;;23.70;99.30;;;;;;5037448;28;20062;-77
2022/06/21 12:50:37;;;;;;;5.93;2.10;;;23.80;99.20;;;;;;5040362;28;20046;-78
2022/06/21 12:53:30;;;;;;;4.05;1.80;;;23.80;99.70;;;;;;5025948;28;20049;-74
2022/06/21 12:56:11;;;;;;;;;;;23.60;98.70;;;;;;5040929;28;20057;-77
2022/06/21 12:59:01;;;;;;;3.72;1.98;;;23.70;98.80;;;;;;5037648;28;19967;-76
2022/06/21 13:01:41;;;;;;;3.78;1.85;;;23.70;99.60;;;;;;5029054;28;20492;-78
2022/06/21 13:04:44;;;;;;;4.50;1.88;;;23.70;99.40;;;;;;5022240;28;20082;-80
2022/06/21 13:07:28;;;;;;;7.25;1.98;;;23.80;99.20;;;;;;5028883;28;20360;-76
2022/06/21 13:10:01;;;;;;;5.38;2.00;;;23.60;98.30;;;;;;5031710;28;20045;-76
2022/06/21 13:12:52;;;;;;;4.15;2.05;;;23.60;99.60;;;;;;5041199;28;20045;-77
2022/06/21 13:15:29;;;;;;;5.28;1.80;;;23.30;98.70;;;;;;5040754;28;20042;-76
2022/06/21 13:18:09;;;;;;;4.75;1.95;;;23.10;98.90;;;;;;5040386;28;20187;-75
2022/06/21 13:20:57;;;;;;;4.60;1.95;;;22.90;98.60;;;;;;5040628;28;20120;-75
2022/06/21 13:23:34;;;;;;;4.70;1.83;;;22.90;99.10;;;;;;5034097;28;20132;-75
2022/06/21 13:26:23;;;;;;;4.07;1.85;;;22.80;98.70;;;;;;5036136;28;20068;-76
2022/06/21 13:28:49;;;;;;;5.40;2.20;;;22.80;97.70;;;;;;5040653;28;20403;-76
2022/06/21 13:31:28;;;;;;;5.28;1.70;;;22.80;98.10;;;;;;5042523;28;20057;-76
2022/06/21 13:34:00;;;;;;;4.68;1.83;;;22.80;98.60;;;;;;5037554;28;20419;-76
2022/06/21 13:36:28;;;;;;;6.43;2.25;;;22.80;98.30;;;;;;5043097;28;20116;-76
2022/06/21 13:39:07;;;;;;;4.97;1.77;;;23.00;98.90;;;;;;5040599;28;20041;-76
2022/06/21 13:44:59;;;;;;;4.05;1.90;;;23.00;97.80;;;;;;5007498;28;20059;-75
2022/06/21 13:47:32;;;;;;;4.28;1.90;;;23.10;98.20;;;;;;5039148;28;20049;-73
2022/06/21 13:50:22;;;;;;;4.45;1.52;;;23.10;98.30;;;;;;5042049;28;20045;-73
2022/06/21 13:53:07;;;;;;;3.75;2.00;;;23.20;98.80;;;;;;5040651;28;20052;-73
2022/06/21 13:55:35;;;;;;;4.13;1.85;;;23.30;98.60;;;;;;5040654;28;20063;-74
2022/06/21 13:58:14;;;;;;;3.85;1.60;;;23.40;98.50;;;;;;5040981;28;20103;-73
2022/06/21 14:00:51;;;;;;;3.88;1.50;;;23.40;97.10;;;;;;5035222;28;20116;-75
2022/06/21 14:03:46;;;;;;;3.55;1.65;;;23.50;97.00;;;;;;5039263;28;20136;-73